sensor_id;sensor_type;location;lat;lon;timestamp;temperature;humidity
14737;DHT22;7459;53.590;10.062;2023-02-21T00:02:16;9.10;99.90
14737;DHT22;7459;53.590;10.062;2023-02-21T00:05:01;9.00;99.90
14737;DHT22;7459;53.590;10.062;2023-02-21T00:07:45;9.00;99.90
14737;DHT22;7459;53.590;10.062;2023-02-21T00:10:30;9.00;99.90
14737;DHT22;7459;53.590;10.062;2023-02-21T00:13:14;9.00;99.90
14737;DHT22;7459;53.590;10.062;2023-02-21T00:15:58;9.00;99.90
14737;DHT22;7459;53.590;10.062;2023-02-21T00:18:42;9.00;99.90
14737;DHT22;7459;53.590;10.062;2023-02-21T00:21:28;9.00;99.90
14737;DHT22;7459;53.590;10.062;2023-02-21T00:24:14;9.00;99.90
14737;DHT22;7459;53.590;10.062;2023-02-21T00:27:00;9.00;99.90
14737;DHT22;7459;53.590;10.062;2023-02-21T00:29:46;9.00;99.90
14737;DHT22;7459;53.590;10.062;2023-02-21T00:32:31;9.00;99.90
14737;DHT22;7459;53.590;10.062;2023-02-21T00:35:16;9.00;99.90
14737;DHT22;7459;53.590;10.062;2023-02-21T00:38:00;9.00;99.90
14737;DHT22;7459;53.590;10.062;2023-02-21T00:40:44;9.00;99.90
14737;DHT22;7459;53.590;10.062;2023-02-21T00:43:30;9.00;99.90
14737;DHT22;7459;53.590;10.062;2023-02-21T00:46:16;9.00;99.90
14737;DHT22;7459;53.590;10.062;2023-02-21T00:49:01;9.00;99.90
14737;DHT22;7459;53.590;10.062;2023-02-21T00:51:47;9.00;99.90
14737;DHT22;7459;53.590;10.062;2023-02-21T00:54:31;8.90;99.90
14737;DHT22;7459;53.590;10.062;2023-02-21T00:57:15;8.90;99.90
14737;DHT22;7459;53.590;10.062;2023-02-21T00:59:59;8.90;99.90
14737;DHT22;7459;53.590;10.062;2023-02-21T01:02:43;8.90;99.90
14737;DHT22;7459;53.590;10.062;2023-02-21T01:05:28;8.90;99.90
14737;DHT22;7459;53.590;10.062;2023-02-21T01:08:12;8.90;99.90
14737;DHT22;7459;53.590;10.062;2023-02-21T01:10:56;8.90;99.90
14737;DHT22;7459;53.590;10.062;2023-02-21T01:13:40;8.90;99.90
14737;DHT22;7459;53.590;10.062;2023-02-21T01:16:28;8.90;99.90
14737;DHT22;7459;53.590;10.062;2023-02-21T01:19:14;8.90;99.90
14737;DHT22;7459;53.590;10.062;2023-02-21T01:21:58;8.90;99.90
14737;DHT22;7459;53.590;10.062;2023-02-21T01:24:43;8.80;99.90
14737;DHT22;7459;53.590;10.062;2023-02-21T01:27:27;8.80;99.90
14737;DHT22;7459;53.590;10.062;2023-02-21T01:30:11;8.80;99.90
14737;DHT22;7459;53.590;10.062;2023-02-21T01:32:55;8.80;99.90
14737;DHT22;7459;53.590;10.062;2023-02-21T01:35:39;8.80;99.90
14737;DHT22;7459;53.590;10.062;2023-02-21T01:38:23;8.80;99.90
14737;DHT22;7459;53.590;10.062;2023-02-21T01:41:08;8.80;99.90
14737;DHT22;7459;53.590;10.062;2023-02-21T01:44:00;8.80;99.90
14737;DHT22;7459;53.590;10.062;2023-02-21T01:46:50;8.80;99.90
14737;DHT22;7459;53.590;10.062;2023-02-21T01:49:38;8.80;99.90
14737;DHT22;7459;53.590;10.062;2023-02-21T01:52:23;8.80;99.90
14737;DHT22;7459;53.590;10.062;2023-02-21T01:55:09;8.80;99.90
14737;DHT22;7459;53.590;10.062;2023-02-21T01:57:55;8.80;99.90
14737;DHT22;7459;53.590;10.062;2023-02-21T02:00:48;8.80;99.90
14737;DHT22;7459;53.590;10.062;2023-02-21T02:03:33;8.80;99.90
14737;DHT22;7459;53.590;10.062;2023-02-21T02:06:18;8.80;99.90
14737;DHT22;7459;53.590;10.062;2023-02-21T02:09:16;8.80;99.90
14737;DHT22;7459;53.590;10.062;2023-02-21T02:12:28;8.80;99.90
14737;DHT22;7459;53.590;10.062;2023-02-21T02:30:15;8.80;99.90
14737;DHT22;7459;53.590;10.062;2023-02-21T02:36:10;8.80;99.90
14737;DHT22;7459;53.590;10.062;2023-02-21T02:38:48;8.80;99.90
14737;DHT22;7459;53.590;10.062;2023-02-21T02:41:59;8.80;99.90
14737;DHT22;7459;53.590;10.062;2023-02-21T02:44:41;8.80;99.90
14737;DHT22;7459;53.590;10.062;2023-02-21T02:47:18;8.80;99.90
14737;DHT22;7459;53.590;10.062;2023-02-21T02:49:49;8.80;99.90
14737;DHT22;7459;53.590;10.062;2023-02-21T02:52:16;8.80;99.90
14737;DHT22;7459;53.590;10.062;2023-02-21T02:54:41;8.80;99.90
14737;DHT22;7459;53.590;10.062;2023-02-21T02:57:09;8.80;99.90
14737;DHT22;7459;53.590;10.062;2023-02-21T03:02:50;8.80;99.90
14737;DHT22;7459;53.590;10.062;2023-02-21T03:08:13;8.80;99.90
14737;DHT22;7459;53.590;10.062;2023-02-21T03:10:49;8.80;99.90
14737;DHT22;7459;53.590;10.062;2023-02-21T03:13:48;8.80;99.90
14737;DHT22;7459;53.590;10.062;2023-02-21T03:16:29;8.80;99.90
14737;DHT22;7459;53.590;10.062;2023-02-21T03:19:08;8.80;99.90
14737;DHT22;7459;53.590;10.062;2023-02-21T03:21:43;8.80;99.90
14737;DHT22;7459;53.590;10.062;2023-02-21T03:24:13;8.80;99.90
14737;DHT22;7459;53.590;10.062;2023-02-21T03:26:42;8.80;99.90
14737;DHT22;7459;53.590;10.062;2023-02-21T03:29:10;8.80;99.90
14737;DHT22;7459;53.590;10.062;2023-02-21T03:31:43;8.80;99.90
14737;DHT22;7459;53.590;10.062;2023-02-21T03:34:12;8.70;99.90
14737;DHT22;7459;53.590;10.062;2023-02-21T03:36:38;8.70;99.90
14737;DHT22;7459;53.590;10.062;2023-02-21T03:39:04;8.70;99.90
14737;DHT22;7459;53.590;10.062;2023-02-21T03:41:30;8.70;99.90
14737;DHT22;7459;53.590;10.062;2023-02-21T03:43:55;8.70;99.90
14737;DHT22;7459;53.590;10.062;2023-02-21T03:46:21;8.70;99.90
14737;DHT22;7459;53.590;10.062;2023-02-21T03:48:47;8.70;99.90
14737;DHT22;7459;53.590;10.062;2023-02-21T03:51:12;8.70;99.90
14737;DHT22;7459;53.590;10.062;2023-02-21T03:53:38;8.70;99.90
14737;DHT22;7459;53.590;10.062;2023-02-21T03:56:04;8.70;99.90
14737;DHT22;7459;53.590;10.062;2023-02-21T03:58:30;8.60;99.90
14737;DHT22;7459;53.590;10.062;2023-02-21T04:00:55;8.60;99.90
14737;DHT22;7459;53.590;10.062;2023-02-21T04:03:22;8.60;99.90
14737;DHT22;7459;53.590;10.062;2023-02-21T04:05:48;8.60;99.90
14737;DHT22;7459;53.590;10.062;2023-02-21T04:08:13;8.60;99.90
14737;DHT22;7459;53.590;10.062;2023-02-21T04:10:39;8.60;99.90
14737;DHT22;7459;53.590;10.062;2023-02-21T04:13:05;8.60;99.90
14737;DHT22;7459;53.590;10.062;2023-02-21T04:15:31;8.50;99.90
14737;DHT22;7459;53.590;10.062;2023-02-21T04:17:57;8.60;99.90
14737;DHT22;7459;53.590;10.062;2023-02-21T04:20:23;8.60;99.90
14737;DHT22;7459;53.590;10.062;2023-02-21T04:22:49;8.60;99.90
14737;DHT22;7459;53.590;10.062;2023-02-21T04:25:15;8.60;99.90
14737;DHT22;7459;53.590;10.062;2023-02-21T04:27:40;8.60;99.90
14737;DHT22;7459;53.590;10.062;2023-02-21T04:30:07;8.50;99.90
14737;DHT22;7459;53.590;10.062;2023-02-21T04:32:33;8.50;99.90
14737;DHT22;7459;53.590;10.062;2023-02-21T04:34:58;8.50;99.90
14737;DHT22;7459;53.590;10.062;2023-02-21T04:37:24;8.50;99.90
14737;DHT22;7459;53.590;10.062;2023-02-21T04:39:50;8.50;99.90
14737;DHT22;7459;53.590;10.062;2023-02-21T04:42:16;8.50;99.90
14737;DHT22;7459;53.590;10.062;2023-02-21T04:44:42;8.40;99.90
14737;DHT22;7459;53.590;10.062;2023-02-21T04:47:07;8.40;99.90
14737;DHT22;7459;53.590;10.062;2023-02-21T04:49:33;8.40;99.90
14737;DHT22;7459;53.590;10.062;2023-02-21T04:51:59;8.40;99.90
14737;DHT22;7459;53.590;10.062;2023-02-21T04:54:24;8.30;99.90
14737;DHT22;7459;53.590;10.062;2023-02-21T04:56:50;8.30;99.90
14737;DHT22;7459;53.590;10.062;2023-02-21T04:59:16;8.30;99.90
14737;DHT22;7459;53.590;10.062;2023-02-21T05:01:41;8.20;99.90
14737;DHT22;7459;53.590;10.062;2023-02-21T05:04:07;8.20;99.90
14737;DHT22;7459;53.590;10.062;2023-02-21T05:06:33;8.20;99.90
14737;DHT22;7459;53.590;10.062;2023-02-21T05:08:59;8.20;99.90
14737;DHT22;7459;53.590;10.062;2023-02-21T05:11:25;8.20;99.90
14737;DHT22;7459;53.590;10.062;2023-02-21T05:13:51;8.10;99.90
14737;DHT22;7459;53.590;10.062;2023-02-21T05:16:18;8.10;99.90
14737;DHT22;7459;53.590;10.062;2023-02-21T05:18:45;8.10;99.90
14737;DHT22;7459;53.590;10.062;2023-02-21T05:21:13;8.10;99.90
14737;DHT22;7459;53.590;10.062;2023-02-21T05:23:40;8.10;99.90
14737;DHT22;7459;53.590;10.062;2023-02-21T05:26:12;8.10;99.90
14737;DHT22;7459;53.590;10.062;2023-02-21T05:28:39;8.10;99.90
14737;DHT22;7459;53.590;10.062;2023-02-21T05:31:05;8.10;99.90
14737;DHT22;7459;53.590;10.062;2023-02-21T05:33:32;8.10;99.90
14737;DHT22;7459;53.590;10.062;2023-02-21T05:35:58;8.10;99.90
14737;DHT22;7459;53.590;10.062;2023-02-21T05:38:25;8.10;99.90
14737;DHT22;7459;53.590;10.062;2023-02-21T05:40:51;8.10;99.90
14737;DHT22;7459;53.590;10.062;2023-02-21T05:43:18;8.00;99.90
14737;DHT22;7459;53.590;10.062;2023-02-21T05:45:44;8.00;99.90
14737;DHT22;7459;53.590;10.062;2023-02-21T05:48:10;8.00;99.90
14737;DHT22;7459;53.590;10.062;2023-02-21T05:50:35;8.00;99.90
14737;DHT22;7459;53.590;10.062;2023-02-21T05:53:03;8.00;99.90
14737;DHT22;7459;53.590;10.062;2023-02-21T05:55:29;8.00;99.90
14737;DHT22;7459;53.590;10.062;2023-02-21T05:57:55;8.00;99.90
14737;DHT22;7459;53.590;10.062;2023-02-21T06:00:26;8.00;99.90
14737;DHT22;7459;53.590;10.062;2023-02-21T06:02:53;8.00;99.90
14737;DHT22;7459;53.590;10.062;2023-02-21T06:05:20;8.00;99.90
14737;DHT22;7459;53.590;10.062;2023-02-21T06:07:47;8.00;99.90
14737;DHT22;7459;53.590;10.062;2023-02-21T06:10:15;8.00;99.90
14737;DHT22;7459;53.590;10.062;2023-02-21T06:12:41;8.00;99.90
14737;DHT22;7459;53.590;10.062;2023-02-21T06:15:07;8.10;99.90
14737;DHT22;7459;53.590;10.062;2023-02-21T06:17:35;8.10;99.90
14737;DHT22;7459;53.590;10.062;2023-02-21T06:20:02;8.10;99.90
14737;DHT22;7459;53.590;10.062;2023-02-21T06:22:28;8.10;99.90
14737;DHT22;7459;53.590;10.062;2023-02-21T06:24:54;8.00;99.90
14737;DHT22;7459;53.590;10.062;2023-02-21T06:27:20;8.00;99.90
14737;DHT22;7459;53.590;10.062;2023-02-21T06:29:45;8.00;99.90
14737;DHT22;7459;53.590;10.062;2023-02-21T06:32:11;8.00;99.90
14737;DHT22;7459;53.590;10.062;2023-02-21T06:34:37;8.00;99.90
14737;DHT22;7459;53.590;10.062;2023-02-21T06:37:02;8.00;99.90
14737;DHT22;7459;53.590;10.062;2023-02-21T06:39:28;8.00;99.90
14737;DHT22;7459;53.590;10.062;2023-02-21T06:41:54;8.00;99.90
14737;DHT22;7459;53.590;10.062;2023-02-21T06:44:20;8.00;99.90
14737;DHT22;7459;53.590;10.062;2023-02-21T06:46:47;8.00;99.90
14737;DHT22;7459;53.590;10.062;2023-02-21T06:49:15;8.00;99.90
14737;DHT22;7459;53.590;10.062;2023-02-21T06:51:41;8.00;99.90
14737;DHT22;7459;53.590;10.062;2023-02-21T06:54:08;7.90;99.90
14737;DHT22;7459;53.590;10.062;2023-02-21T06:56:34;8.00;99.90
14737;DHT22;7459;53.590;10.062;2023-02-21T06:59:00;8.00;99.90
14737;DHT22;7459;53.590;10.062;2023-02-21T07:01:27;8.00;99.90
14737;DHT22;7459;53.590;10.062;2023-02-21T07:03:55;8.00;99.90
14737;DHT22;7459;53.590;10.062;2023-02-21T07:06:22;8.00;99.90
14737;DHT22;7459;53.590;10.062;2023-02-21T07:08:48;8.00;99.90
14737;DHT22;7459;53.590;10.062;2023-02-21T07:11:14;8.00;99.90
14737;DHT22;7459;53.590;10.062;2023-02-21T07:13:41;8.00;99.90
14737;DHT22;7459;53.590;10.062;2023-02-21T07:16:11;8.00;99.90
14737;DHT22;7459;53.590;10.062;2023-02-21T07:18:38;8.00;99.90
14737;DHT22;7459;53.590;10.062;2023-02-21T07:21:04;8.00;99.90
14737;DHT22;7459;53.590;10.062;2023-02-21T07:23:30;8.10;99.90
14737;DHT22;7459;53.590;10.062;2023-02-21T07:25:55;8.10;99.90
14737;DHT22;7459;53.590;10.062;2023-02-21T07:28:21;8.10;99.90
14737;DHT22;7459;53.590;10.062;2023-02-21T07:30:47;8.10;99.90
14737;DHT22;7459;53.590;10.062;2023-02-21T07:33:13;8.10;99.90
14737;DHT22;7459;53.590;10.062;2023-02-21T07:35:38;8.10;99.90
14737;DHT22;7459;53.590;10.062;2023-02-21T07:38:04;8.10;99.90
14737;DHT22;7459;53.590;10.062;2023-02-21T07:40:30;8.10;99.90
14737;DHT22;7459;53.590;10.062;2023-02-21T07:42:55;8.10;99.90
14737;DHT22;7459;53.590;10.062;2023-02-21T07:45:21;8.10;99.90
14737;DHT22;7459;53.590;10.062;2023-02-21T07:47:47;8.10;99.90
14737;DHT22;7459;53.590;10.062;2023-02-21T07:50:15;8.10;99.90
14737;DHT22;7459;53.590;10.062;2023-02-21T07:52:41;8.20;99.90
14737;DHT22;7459;53.590;10.062;2023-02-21T07:55:07;8.20;99.90
14737;DHT22;7459;53.590;10.062;2023-02-21T07:57:33;8.20;99.90
14737;DHT22;7459;53.590;10.062;2023-02-21T07:59:59;8.20;99.90
14737;DHT22;7459;53.590;10.062;2023-02-21T08:02:24;8.20;99.90
14737;DHT22;7459;53.590;10.062;2023-02-21T08:04:51;8.20;99.90
14737;DHT22;7459;53.590;10.062;2023-02-21T08:07:17;8.20;99.90
14737;DHT22;7459;53.590;10.062;2023-02-21T08:09:43;8.20;99.90
14737;DHT22;7459;53.590;10.062;2023-02-21T08:12:08;8.20;99.90
14737;DHT22;7459;53.590;10.062;2023-02-21T08:14:34;8.20;99.90
14737;DHT22;7459;53.590;10.062;2023-02-21T08:17:00;8.20;99.90
14737;DHT22;7459;53.590;10.062;2023-02-21T08:19:25;8.20;99.90
14737;DHT22;7459;53.590;10.062;2023-02-21T08:21:51;8.30;99.90
14737;DHT22;7459;53.590;10.062;2023-02-21T08:24:17;8.30;99.90
14737;DHT22;7459;53.590;10.062;2023-02-21T08:26:44;8.30;99.90
14737;DHT22;7459;53.590;10.062;2023-02-21T08:29:11;8.30;99.90
14737;DHT22;7459;53.590;10.062;2023-02-21T08:31:39;8.20;99.90
14737;DHT22;7459;53.590;10.062;2023-02-21T08:34:07;8.30;99.90
14737;DHT22;7459;53.590;10.062;2023-02-21T08:36:38;8.30;99.90
14737;DHT22;7459;53.590;10.062;2023-02-21T08:39:06;8.30;99.90
14737;DHT22;7459;53.590;10.062;2023-02-21T08:41:36;8.40;99.90
14737;DHT22;7459;53.590;10.062;2023-02-21T08:44:04;8.30;99.90
14737;DHT22;7459;53.590;10.062;2023-02-21T08:46:31;8.40;99.90
14737;DHT22;7459;53.590;10.062;2023-02-21T08:48:57;8.40;99.90
14737;DHT22;7459;53.590;10.062;2023-02-21T08:51:26;8.40;99.90
14737;DHT22;7459;53.590;10.062;2023-02-21T08:53:52;8.40;99.90
14737;DHT22;7459;53.590;10.062;2023-02-21T08:56:19;8.40;99.90
14737;DHT22;7459;53.590;10.062;2023-02-21T08:58:46;8.40;99.90
14737;DHT22;7459;53.590;10.062;2023-02-21T09:01:11;8.50;99.90
14737;DHT22;7459;53.590;10.062;2023-02-21T09:03:37;8.50;99.90
14737;DHT22;7459;53.590;10.062;2023-02-21T09:06:03;8.50;99.90
14737;DHT22;7459;53.590;10.062;2023-02-21T09:08:29;8.50;99.90
14737;DHT22;7459;53.590;10.062;2023-02-21T09:10:57;8.60;99.90
14737;DHT22;7459;53.590;10.062;2023-02-21T09:13:26;8.60;99.90
14737;DHT22;7459;53.590;10.062;2023-02-21T09:15:57;8.50;99.90
14737;DHT22;7459;53.590;10.062;2023-02-21T09:18:23;8.60;99.90
14737;DHT22;7459;53.590;10.062;2023-02-21T09:20:49;8.60;99.90
14737;DHT22;7459;53.590;10.062;2023-02-21T09:23:20;8.60;99.90
14737;DHT22;7459;53.590;10.062;2023-02-21T09:25:47;8.60;99.90
14737;DHT22;7459;53.590;10.062;2023-02-21T09:28:14;8.60;99.90
14737;DHT22;7459;53.590;10.062;2023-02-21T09:30:39;8.60;99.90
14737;DHT22;7459;53.590;10.062;2023-02-21T09:33:06;8.60;99.90
14737;DHT22;7459;53.590;10.062;2023-02-21T09:35:32;8.60;99.90
14737;DHT22;7459;53.590;10.062;2023-02-21T09:37:58;8.60;99.90
14737;DHT22;7459;53.590;10.062;2023-02-21T09:43:17;8.70;99.90
14737;DHT22;7459;53.590;10.062;2023-02-21T09:45:47;8.70;99.90
14737;DHT22;7459;53.590;10.062;2023-02-21T09:48:19;8.70;99.90
14737;DHT22;7459;53.590;10.062;2023-02-21T09:50:53;8.70;99.90
14737;DHT22;7459;53.590;10.062;2023-02-21T09:53:25;8.70;99.90
14737;DHT22;7459;53.590;10.062;2023-02-21T09:55:56;8.70;99.90
14737;DHT22;7459;53.590;10.062;2023-02-21T09:58:25;8.80;99.90
14737;DHT22;7459;53.590;10.062;2023-02-21T10:00:50;8.80;99.90
14737;DHT22;7459;53.590;10.062;2023-02-21T10:03:40;8.80;99.90
14737;DHT22;7459;53.590;10.062;2023-02-21T10:08:58;8.80;99.90
14737;DHT22;7459;53.590;10.062;2023-02-21T10:14:22;8.90;99.90
14737;DHT22;7459;53.590;10.062;2023-02-21T10:17:10;8.90;99.90
14737;DHT22;7459;53.590;10.062;2023-02-21T10:19:43;8.90;99.90
14737;DHT22;7459;53.590;10.062;2023-02-21T10:22:32;8.90;99.90
14737;DHT22;7459;53.590;10.062;2023-02-21T10:25:11;9.00;99.90
14737;DHT22;7459;53.590;10.062;2023-02-21T10:27:45;9.00;99.90
14737;DHT22;7459;53.590;10.062;2023-02-21T10:30:32;9.00;99.90
14737;DHT22;7459;53.590;10.062;2023-02-21T10:33:02;9.00;99.90
14737;DHT22;7459;53.590;10.062;2023-02-21T10:35:32;9.00;99.90
14737;DHT22;7459;53.590;10.062;2023-02-21T10:38:00;9.10;99.90
14737;DHT22;7459;53.590;10.062;2023-02-21T10:40:39;9.10;99.90
14737;DHT22;7459;53.590;10.062;2023-02-21T10:45:52;9.10;99.90
14737;DHT22;7459;53.590;10.062;2023-02-21T10:48:24;9.10;99.90
14737;DHT22;7459;53.590;10.062;2023-02-21T10:53:30;9.20;99.90
14737;DHT22;7459;53.590;10.062;2023-02-21T10:56:24;9.30;99.90
14737;DHT22;7459;53.590;10.062;2023-02-21T10:59:03;9.30;99.90
14737;DHT22;7459;53.590;10.062;2023-02-21T11:01:40;9.30;99.90
14737;DHT22;7459;53.590;10.062;2023-02-21T11:06:48;9.40;99.90
14737;DHT22;7459;53.590;10.062;2023-02-21T11:17:20;9.50;99.90
14737;DHT22;7459;53.590;10.062;2023-02-21T11:22:47;9.50;99.90
14737;DHT22;7459;53.590;10.062;2023-02-21T11:25:31;9.50;99.90
14737;DHT22;7459;53.590;10.062;2023-02-21T11:28:19;9.50;99.90
14737;DHT22;7459;53.590;10.062;2023-02-21T11:31:07;9.50;99.90
14737;DHT22;7459;53.590;10.062;2023-02-21T11:33:40;9.50;99.90
14737;DHT22;7459;53.590;10.062;2023-02-21T11:36:16;9.60;99.90
14737;DHT22;7459;53.590;10.062;2023-02-21T11:39:04;9.60;99.90
14737;DHT22;7459;53.590;10.062;2023-02-21T11:41:55;9.70;99.90
14737;DHT22;7459;53.590;10.062;2023-02-21T11:44:36;9.70;99.90
14737;DHT22;7459;53.590;10.062;2023-02-21T11:47:27;9.80;99.90
14737;DHT22;7459;53.590;10.062;2023-02-21T11:50:26;9.80;99.90
14737;DHT22;7459;53.590;10.062;2023-02-21T11:56:34;9.80;99.90
14737;DHT22;7459;53.590;10.062;2023-02-21T12:02:16;9.90;99.90
14737;DHT22;7459;53.590;10.062;2023-02-21T12:05:37;9.90;99.90
14737;DHT22;7459;53.590;10.062;2023-02-21T12:08:37;9.90;99.90
14737;DHT22;7459;53.590;10.062;2023-02-21T12:14:27;9.90;99.90
14737;DHT22;7459;53.590;10.062;2023-02-21T12:23:32;9.90;99.90
14737;DHT22;7459;53.590;10.062;2023-02-21T12:29:41;9.90;99.90
14737;DHT22;7459;53.590;10.062;2023-02-21T12:37:50;9.90;99.90
14737;DHT22;7459;53.590;10.062;2023-02-21T12:40:36;9.80;99.90
14737;DHT22;7459;53.590;10.062;2023-02-21T12:43:41;9.80;99.90
14737;DHT22;7459;53.590;10.062;2023-02-21T12:46:27;9.80;99.90
14737;DHT22;7459;53.590;10.062;2023-02-21T12:52:28;9.80;99.90
14737;DHT22;7459;53.590;10.062;2023-02-21T12:55:15;9.90;99.90
14737;DHT22;7459;53.590;10.062;2023-02-21T12:57:53;9.90;99.90
14737;DHT22;7459;53.590;10.062;2023-02-21T13:00:35;9.80;99.90
14737;DHT22;7459;53.590;10.062;2023-02-21T13:06:27;9.80;99.90
14737;DHT22;7459;53.590;10.062;2023-02-21T13:09:30;9.80;99.90
14737;DHT22;7459;53.590;10.062;2023-02-21T13:12:24;9.70;99.90
14737;DHT22;7459;53.590;10.062;2023-02-21T13:15:03;9.70;99.90
14737;DHT22;7459;53.590;10.062;2023-02-21T13:17:41;9.70;99.90
14737;DHT22;7459;53.590;10.062;2023-02-21T13:20:14;9.70;99.90
14737;DHT22;7459;53.590;10.062;2023-02-21T13:29:17;9.70;99.90
14737;DHT22;7459;53.590;10.062;2023-02-21T13:31:43;9.70;99.90
14737;DHT22;7459;53.590;10.062;2023-02-21T13:34:12;9.80;99.90
14737;DHT22;7459;53.590;10.062;2023-02-21T13:36:45;9.80;99.90
14737;DHT22;7459;53.590;10.062;2023-02-21T13:39:26;9.80;99.90
14737;DHT22;7459;53.590;10.062;2023-02-21T13:42:05;9.80;99.90
14737;DHT22;7459;53.590;10.062;2023-02-21T13:44:39;9.90;99.90
14737;DHT22;7459;53.590;10.062;2023-02-21T13:49:56;9.70;99.90
14737;DHT22;7459;53.590;10.062;2023-02-21T13:57:41;9.60;99.90
14737;DHT22;7459;53.590;10.062;2023-02-21T14:03:00;9.60;99.90
14737;DHT22;7459;53.590;10.062;2023-02-21T14:08:31;9.60;99.90
14737;DHT22;7459;53.590;10.062;2023-02-21T14:11:24;9.60;99.90
14737;DHT22;7459;53.590;10.062;2023-02-21T14:14:19;9.50;99.90
14737;DHT22;7459;53.590;10.062;2023-02-21T14:16:58;9.60;99.90
14737;DHT22;7459;53.590;10.062;2023-02-21T14:19:40;9.60;99.90
14737;DHT22;7459;53.590;10.062;2023-02-21T14:22:23;9.60;99.90
14737;DHT22;7459;53.590;10.062;2023-02-21T14:24:51;9.50;99.90
14737;DHT22;7459;53.590;10.062;2023-02-21T14:32:47;9.50;99.90
14737;DHT22;7459;53.590;10.062;2023-02-21T14:40:53;9.50;99.90
14737;DHT22;7459;53.590;10.062;2023-02-21T14:46:43;9.40;99.90
14737;DHT22;7459;53.590;10.062;2023-02-21T14:52:34;9.40;99.90
14737;DHT22;7459;53.590;10.062;2023-02-21T15:07:19;9.40;99.90
14737;DHT22;7459;53.590;10.062;2023-02-21T15:10:17;9.30;99.90
14737;DHT22;7459;53.590;10.062;2023-02-21T15:12:51;9.30;99.90
14737;DHT22;7459;53.590;10.062;2023-02-21T15:15:38;9.30;99.90
14737;DHT22;7459;53.590;10.062;2023-02-21T15:18:08;9.30;99.90
14737;DHT22;7459;53.590;10.062;2023-02-21T15:20:41;9.30;99.90
14737;DHT22;7459;53.590;10.062;2023-02-21T15:23:15;9.30;99.90
14737;DHT22;7459;53.590;10.062;2023-02-21T15:25:53;9.30;99.90
14737;DHT22;7459;53.590;10.062;2023-02-21T15:31:07;9.30;99.90
14737;DHT22;7459;53.590;10.062;2023-02-21T15:33:36;9.20;99.90
14737;DHT22;7459;53.590;10.062;2023-02-21T15:41:41;9.20;99.90
14737;DHT22;7459;53.590;10.062;2023-02-21T15:44:31;9.20;99.90
14737;DHT22;7459;53.590;10.062;2023-02-21T15:47:10;9.20;99.90
14737;DHT22;7459;53.590;10.062;2023-02-21T15:49:57;9.20;99.90
14737;DHT22;7459;53.590;10.062;2023-02-21T15:52:46;9.20;99.90
14737;DHT22;7459;53.590;10.062;2023-02-21T16:01:00;9.20;99.90
14737;DHT22;7459;53.590;10.062;2023-02-21T16:03:39;9.10;99.90
14737;DHT22;7459;53.590;10.062;2023-02-21T16:06:16;9.10;99.90
14737;DHT22;7459;53.590;10.062;2023-02-21T16:09:06;9.10;99.90
14737;DHT22;7459;53.590;10.062;2023-02-21T16:11:59;9.10;99.90
14737;DHT22;7459;53.590;10.062;2023-02-21T16:17:31;9.00;99.90
14737;DHT22;7459;53.590;10.062;2023-02-21T16:20:01;9.00;99.90
14737;DHT22;7459;53.590;10.062;2023-02-21T16:22:46;9.00;99.90
14737;DHT22;7459;53.590;10.062;2023-02-21T16:25:21;9.00;99.90
14737;DHT22;7459;53.590;10.062;2023-02-21T16:27:54;9.00;99.90
14737;DHT22;7459;53.590;10.062;2023-02-21T16:30:28;9.00;99.90
14737;DHT22;7459;53.590;10.062;2023-02-21T16:33:01;9.00;99.90
14737;DHT22;7459;53.590;10.062;2023-02-21T16:35:28;9.00;99.90
14737;DHT22;7459;53.590;10.062;2023-02-21T16:37:56;8.90;99.90
14737;DHT22;7459;53.590;10.062;2023-02-21T16:40:26;8.90;99.90
14737;DHT22;7459;53.590;10.062;2023-02-21T16:42:54;8.90;99.90
14737;DHT22;7459;53.590;10.062;2023-02-21T16:45:21;8.90;99.90
14737;DHT22;7459;53.590;10.062;2023-02-21T16:47:49;8.90;99.90
14737;DHT22;7459;53.590;10.062;2023-02-21T16:50:28;8.80;99.90
14737;DHT22;7459;53.590;10.062;2023-02-21T16:53:02;8.80;99.90
14737;DHT22;7459;53.590;10.062;2023-02-21T16:55:28;8.80;99.90
14737;DHT22;7459;53.590;10.062;2023-02-21T16:58:00;8.80;99.90
14737;DHT22;7459;53.590;10.062;2023-02-21T17:00:28;8.80;99.90
14737;DHT22;7459;53.590;10.062;2023-02-21T17:02:55;8.80;99.90
14737;DHT22;7459;53.590;10.062;2023-02-21T17:05:21;8.80;99.90
14737;DHT22;7459;53.590;10.062;2023-02-21T17:07:47;8.80;99.90
14737;DHT22;7459;53.590;10.062;2023-02-21T17:10:14;8.80;99.90
14737;DHT22;7459;53.590;10.062;2023-02-21T17:12:40;8.80;99.90
14737;DHT22;7459;53.590;10.062;2023-02-21T17:15:06;8.80;99.90
14737;DHT22;7459;53.590;10.062;2023-02-21T17:17:32;8.80;99.90
14737;DHT22;7459;53.590;10.062;2023-02-21T17:19:58;8.80;99.90
14737;DHT22;7459;53.590;10.062;2023-02-21T17:22:23;8.80;99.90
14737;DHT22;7459;53.590;10.062;2023-02-21T17:24:49;8.80;99.90
14737;DHT22;7459;53.590;10.062;2023-02-21T17:27:15;8.80;99.90
14737;DHT22;7459;53.590;10.062;2023-02-21T17:29:40;8.80;99.90
14737;DHT22;7459;53.590;10.062;2023-02-21T17:32:06;8.80;99.90
14737;DHT22;7459;53.590;10.062;2023-02-21T17:34:33;8.80;99.90
14737;DHT22;7459;53.590;10.062;2023-02-21T17:36:59;8.70;99.90
14737;DHT22;7459;53.590;10.062;2023-02-21T17:39:25;8.70;99.90
14737;DHT22;7459;53.590;10.062;2023-02-21T17:41:51;8.70;99.90
14737;DHT22;7459;53.590;10.062;2023-02-21T17:44:18;8.70;99.90
14737;DHT22;7459;53.590;10.062;2023-02-21T17:46:48;8.70;99.90
14737;DHT22;7459;53.590;10.062;2023-02-21T17:49:20;8.70;99.90
14737;DHT22;7459;53.590;10.062;2023-02-21T17:51:47;8.70;99.90
14737;DHT22;7459;53.590;10.062;2023-02-21T17:54:18;8.70;99.90
14737;DHT22;7459;53.590;10.062;2023-02-21T17:56:45;8.70;99.90
14737;DHT22;7459;53.590;10.062;2023-02-21T17:59:11;8.70;99.90
14737;DHT22;7459;53.590;10.062;2023-02-21T18:01:37;8.70;99.90
14737;DHT22;7459;53.590;10.062;2023-02-21T18:04:05;8.70;99.90
14737;DHT22;7459;53.590;10.062;2023-02-21T18:06:32;8.70;99.90
14737;DHT22;7459;53.590;10.062;2023-02-21T18:08:57;8.70;99.90
14737;DHT22;7459;53.590;10.062;2023-02-21T18:11:24;8.70;99.90
14737;DHT22;7459;53.590;10.062;2023-02-21T18:13:50;8.70;99.90
14737;DHT22;7459;53.590;10.062;2023-02-21T18:16:16;8.70;99.90
14737;DHT22;7459;53.590;10.062;2023-02-21T18:18:42;8.70;99.90
14737;DHT22;7459;53.590;10.062;2023-02-21T18:21:09;8.70;99.90
14737;DHT22;7459;53.590;10.062;2023-02-21T18:23:35;8.70;99.90
14737;DHT22;7459;53.590;10.062;2023-02-21T18:26:03;8.70;99.90
14737;DHT22;7459;53.590;10.062;2023-02-21T18:28:30;8.60;99.90
14737;DHT22;7459;53.590;10.062;2023-02-21T18:30:55;8.60;99.90
14737;DHT22;7459;53.590;10.062;2023-02-21T18:33:23;8.60;99.90
14737;DHT22;7459;53.590;10.062;2023-02-21T18:35:52;8.60;99.90
14737;DHT22;7459;53.590;10.062;2023-02-21T18:38:22;8.70;99.90
14737;DHT22;7459;53.590;10.062;2023-02-21T18:40:48;8.70;99.90
14737;DHT22;7459;53.590;10.062;2023-02-21T18:43:17;8.70;99.90
14737;DHT22;7459;53.590;10.062;2023-02-21T18:45:48;8.70;99.90
14737;DHT22;7459;53.590;10.062;2023-02-21T18:48:15;8.60;99.90
14737;DHT22;7459;53.590;10.062;2023-02-21T18:50:41;8.60;99.90
14737;DHT22;7459;53.590;10.062;2023-02-21T18:53:07;8.60;99.90